Terminal Aerodrome Forecast
Issued by NWS Missoula, MT

Home | Current Version | Previous Version | Text Only | Print | Product List | Glossary On
Versions: 1 2 3 4 5 6 7 8 9 10 11 12 13 14 15 16 17 18 19 20
000
FTUS45 KMSO 211211 AAA
TAFMSO
TAF AMD
KMSO 211211Z 2112/2212 14006KT 3SM -RASN BR OVC035
     FM211500 28010KT P6SM -SHRA OVC040
     FM211900 29017G27KT P6SM VCSH OVC050
     FM220000 30008KT P6SM VCSH OVC050=

USA.gov is the U.S. government's official web portal to all federal, state and local government web resources and services.